Time;durP1;ratioP1;P1;durP2;ratioP2;P2;SDS_P1;SDS_P2;PMS_P1;PMS_P2;Temp;Humidity;BMP_temperature;BMP_pressure;BME280_temperature;BME280_humidity;BME280_pressure;Samples;Min_cycle;Max_cycle;Signal;HPM_P1;HPM_P2
2023/03/25 00:00:15;;;;;;;0.85;0.47;;;;;;;;;;4995657;28;20045;-83
2023/03/25 00:02:43;;;;;;;1.65;0.60;;;;;;;;;;4993029;28;20041;-84
2023/03/25 00:05:10;;;;;;;2.72;1.00;;;;;;;;;;5010082;28;20038;-87
2023/03/25 00:07:36;;;;;;;1.55;0.57;;;;;;;;;;5000207;28;20034;-83
2023/03/25 00:10:01;;;;;;;0.80;0.60;;;;;;;;;;5015235;28;20530;-85
2023/03/25 00:12:27;;;;;;;1.55;0.60;;;;;;;;;;5002354;28;20117;-86
2023/03/25 00:14:57;;;;;;;2.10;0.63;;;;;;;;;;4991153;28;20402;-86
2023/03/25 00:17:30;;;;;;;0.80;0.55;;;;;;;;;;5015578;28;20410;-86
2023/03/25 00:19:59;;;;;;;2.30;0.70;;;;;;;;;;5001525;28;20036;-86
2023/03/25 00:22:25;;;;;;;1.40;0.73;;;;;;;;;;5002527;28;20041;-86
2023/03/25 00:24:51;;;;;;;2.17;0.63;;;;;;;;;;5001169;28;20088;-86
2023/03/25 00:27:17;;;;;;;0.50;0.40;;;;;;;;;;5000627;28;20034;-85
2023/03/25 00:29:43;;;;;;;2.03;0.80;;;;;;;;;;4997001;28;20100;-86
2023/03/25 00:32:10;;;;;;;1.88;0.60;;;;;;;;;;4999321;28;20039;-84
2023/03/25 00:34:40;;;;;;;1.90;0.60;;;;;;;;;;5016613;28;20031;-85
2023/03/25 00:37:09;;;;;;;1.73;0.80;;;;;;;;;;5018128;28;20073;-85
2023/03/25 00:39:35;;;;;;;1.05;0.70;;;;;;;;;;5001853;28;20033;-85
2023/03/25 00:42:01;;;;;;;2.47;1.05;;;;;;;;;;5002392;28;20042;-85
2023/03/25 00:44:28;;;;;;;2.15;0.75;;;;;;;;;;5007806;28;20133;-85
2023/03/25 00:46:54;;;;;;;1.80;0.57;;;;;;;;;;4995325;28;20035;-84
2023/03/25 00:49:23;;;;;;;1.60;0.70;;;;;;;;;;4999121;28;20046;-86
2023/03/25 00:51:50;;;;;;;1.30;0.60;;;;;;;;;;4998309;28;20042;-84
2023/03/25 00:54:17;;;;;;;2.88;0.93;;;;;;;;;;4997083;28;20068;-85
2023/03/25 00:56:43;;;;;;;3.97;0.80;;;;;;;;;;5013524;28;20449;-85
2023/03/25 00:59:09;;;;;;;2.33;0.80;;;;;;;;;;4998402;28;20121;-84
2023/03/25 01:01:38;;;;;;;2.13;0.80;;;;;;;;;;4998302;28;20022;-86
2023/03/25 01:04:10;;;;;;;1.30;0.60;;;;;;;;;;5023177;28;20105;-85
2023/03/25 01:06:43;;;;;;;3.60;0.70;;;;;;;;;;5001913;28;20049;-86
2023/03/25 01:09:12;;;;;;;4.85;0.70;;;;;;;;;;5014210;28;20110;-86
2023/03/25 01:11:39;;;;;;;3.08;0.65;;;;;;;;;;5001885;28;20512;-83
2023/03/25 01:14:10;;;;;;;3.53;0.80;;;;;;;;;;5001761;28;20129;-84
2023/03/25 01:16:36;;;;;;;1.15;0.63;;;;;;;;;;4997431;28;20034;-85
2023/03/25 01:19:01;;;;;;;2.15;0.70;;;;;;;;;;4999058;28;20034;-83
2023/03/25 01:21:27;;;;;;;3.60;0.80;;;;;;;;;;4999168;28;20093;-84
2023/03/25 01:23:52;;;;;;;2.65;0.70;;;;;;;;;;4999219;28;20121;-85
2023/03/25 01:26:18;;;;;;;2.28;0.68;;;;;;;;;;4999180;28;20509;-84
2023/03/25 01:28:44;;;;;;;2.53;0.80;;;;;;;;;;4997501;28;20037;-85
2023/03/25 01:31:12;;;;;;;3.10;0.90;;;;;;;;;;5015300;28;20043;-85
2023/03/25 01:33:38;;;;;;;1.98;0.70;;;;;;;;;;4982353;28;20050;-85
2023/03/25 01:36:08;;;;;;;4.65;0.98;;;;;;;;;;4997534;28;20042;-85
2023/03/25 01:38:35;;;;;;;2.60;0.70;;;;;;;;;;5000604;28;20034;-87
2023/03/25 01:41:02;;;;;;;2.83;0.90;;;;;;;;;;5014802;28;20038;-86
2023/03/25 01:43:28;;;;;;;2.28;0.70;;;;;;;;;;5002066;28;20038;-85
2023/03/25 01:45:54;;;;;;;3.92;0.85;;;;;;;;;;5019451;28;20388;-85
2023/03/25 01:48:34;;;;;;;4.30;0.90;;;;;;;;;;4995697;28;20376;-86
2023/03/25 01:51:07;;;;;;;2.42;0.70;;;;;;;;;;4994311;28;20454;-85
2023/03/25 01:53:32;;;;;;;1.23;0.52;;;;;;;;;;4993415;28;20066;-84
2023/03/25 01:56:02;;;;;;;3.85;0.88;;;;;;;;;;4993490;28;20042;-85
2023/03/25 01:58:29;;;;;;;2.30;0.95;;;;;;;;;;4993334;28;20486;-85
2023/03/25 02:00:56;;;;;;;3.15;0.80;;;;;;;;;;4991524;28;20039;-85
2023/03/25 02:03:23;;;;;;;0.85;0.60;;;;;;;;;;4994556;28;20034;-86
2023/03/25 02:06:06;;;;;;;2.03;0.70;;;;;;;;;;4994202;28;20406;-85
2023/03/25 02:08:36;;;;;;;2.88;0.80;;;;;;;;;;4994406;28;20098;-85
2023/03/25 02:11:04;;;;;;;4.03;0.80;;;;;;;;;;5008017;28;20043;-85
2023/03/25 02:13:30;;;;;;;1.63;0.70;;;;;;;;;;4993223;28;20570;-86
2023/03/25 02:16:34;;;;;;;2.17;0.70;;;;;;;;;;5002228;28;20054;-84
2023/03/25 02:19:39;;;;;;;3.15;1.27;;;;;;;;;;4992780;28;20518;-86
2023/03/25 02:22:40;;;;;;;2.30;0.70;;;;;;;;;;4952078;29;20046;-84
2023/03/25 02:25:28;;;;;;;3.67;0.90;;;;;;;;;;4977824;28;20034;-85
2023/03/25 02:28:12;;;;;;;2.83;0.90;;;;;;;;;;4992548;28;20047;-85
2023/03/25 02:30:37;;;;;;;4.60;0.70;;;;;;;;;;4990492;28;20515;-85
2023/03/25 02:33:06;;;;;;;6.70;1.20;;;;;;;;;;5011106;28;20041;-85
2023/03/25 02:36:09;;;;;;;2.92;0.90;;;;;;;;;;4994153;28;20034;-85
2023/03/25 02:38:42;;;;;;;3.88;0.95;;;;;;;;;;4993041;28;20110;-85
2023/03/25 02:41:15;;;;;;;3.55;0.80;;;;;;;;;;4976121;28;20034;-87
2023/03/25 02:43:50;;;;;;;2.33;0.90;;;;;;;;;;4996786;28;20034;-86
2023/03/25 02:46:17;;;;;;;3.60;1.08;;;;;;;;;;4999801;28;20034;-85
2023/03/25 02:48:59;;;;;;;1.55;0.63;;;;;;;;;;4992512;28;20042;-86
2023/03/25 02:51:31;;;;;;;2.13;0.82;;;;;;;;;;4991832;28;20093;-85
2023/03/25 02:54:02;;;;;;;7.53;0.90;;;;;;;;;;4993201;28;20034;-83
2023/03/25 02:56:31;;;;;;;4.47;0.77;;;;;;;;;;5005323;28;20044;-84
2023/03/25 02:58:58;;;;;;;0.93;0.60;;;;;;;;;;4991900;28;20037;-85
2023/03/25 03:01:25;;;;;;;3.80;1.10;;;;;;;;;;5007988;28;20052;-85
2023/03/25 03:03:53;;;;;;;3.03;0.80;;;;;;;;;;4985643;28;20038;-85
2023/03/25 03:06:20;;;;;;;3.78;0.95;;;;;;;;;;4986063;28;20089;-84
2023/03/25 03:08:48;;;;;;;9.50;1.75;;;;;;;;;;4991577;28;20490;-86
2023/03/25 03:11:58;;;;;;;2.25;0.70;;;;;;;;;;4955512;28;1079353;-85
2023/03/25 03:14:35;;;;;;;1.95;0.68;;;;;;;;;;4937004;29;20461;-86
2023/03/25 03:17:30;;;;;;;3.28;0.88;;;;;;;;;;4935690;29;20055;-84
2023/03/25 03:20:11;;;;;;;4.75;1.00;;;;;;;;;;4979798;28;20093;-84
2023/03/25 03:23:03;;;;;;;3.35;1.05;;;;;;;;;;4992494;28;20042;-84
2023/03/25 03:25:43;;;;;;;4.55;0.90;;;;;;;;;;4989765;28;20042;-86
2023/03/25 03:28:15;;;;;;;2.40;0.85;;;;;;;;;;5016209;28;20077;-84
2023/03/25 03:30:57;;;;;;;3.63;0.88;;;;;;;;;;4996354;28;20454;-85
2023/03/25 03:33:29;;;;;;;3.22;0.90;;;;;;;;;;4991078;28;20038;-85
2023/03/25 03:36:00;;;;;;;2.17;1.00;;;;;;;;;;4996074;28;20129;-85
2023/03/25 03:38:33;;;;;;;1.58;0.52;;;;;;;;;;4993280;28;20039;-85
2023/03/25 03:41:03;;;;;;;1.85;0.75;;;;;;;;;;4996732;28;20041;-84
2023/03/25 03:43:47;;;;;;;2.22;0.80;;;;;;;;;;4996411;28;20049;-86
2023/03/25 03:46:22;;;;;;;6.18;0.95;;;;;;;;;;4996499;28;20053;-85
2023/03/25 03:48:54;;;;;;;1.67;0.63;;;;;;;;;;4993288;28;20046;-85
2023/03/25 03:51:29;;;;;;;1.48;0.60;;;;;;;;;;4990544;28;20479;-84
2023/03/25 03:54:17;;;;;;;3.40;0.70;;;;;;;;;;4991479;28;20096;-83
2023/03/25 03:56:45;;;;;;;2.25;0.57;;;;;;;;;;4992717;28;20311;-84
2023/03/25 03:59:34;;;;;;;2.97;0.60;;;;;;;;;;4974987;28;20085;-85
2023/03/25 04:02:04;;;;;;;1.63;0.60;;;;;;;;;;4973017;28;20112;-85
2023/03/25 04:04:33;;;;;;;3.90;0.60;;;;;;;;;;4993467;28;20394;-86
2023/03/25 04:07:05;;;;;;;2.00;0.60;;;;;;;;;;4972183;28;20118;-86
2023/03/25 04:09:54;;;;;;;1.40;0.60;;;;;;;;;;4990311;28;20066;-85
2023/03/25 04:12:24;;;;;;;2.22;0.70;;;;;;;;;;4993136;28;20105;-86
2023/03/25 04:14:51;;;;;;;3.15;0.70;;;;;;;;;;4990143;28;20035;-85
2023/03/25 04:17:16;;;;;;;2.95;0.50;;;;;;;;;;4993088;28;20035;-84
2023/03/25 04:19:47;;;;;;;3.28;0.60;;;;;;;;;;4993351;28;20022;-85
2023/03/25 04:22:16;;;;;;;0.43;0.40;;;;;;;;;;4988587;28;20038;-83
2023/03/25 04:24:42;;;;;;;2.30;0.70;;;;;;;;;;4993165;28;20030;-85
2023/03/25 04:27:12;;;;;;;3.33;0.50;;;;;;;;;;4992344;28;20491;-83
2023/03/25 04:29:39;;;;;;;1.63;0.50;;;;;;;;;;4992802;28;20505;-86
2023/03/25 04:32:05;;;;;;;1.27;0.52;;;;;;;;;;4993143;28;20486;-84
2023/03/25 04:34:30;;;;;;;2.30;0.80;;;;;;;;;;4993353;28;20191;-85
2023/03/25 04:36:56;;;;;;;1.95;0.40;;;;;;;;;;4992818;28;20061;-84
2023/03/25 04:39:21;;;;;;;1.55;0.57;;;;;;;;;;4992675;28;20472;-85
2023/03/25 04:41:55;;;;;;;3.30;0.47;;;;;;;;;;5005067;28;20034;-84
2023/03/25 04:44:22;;;;;;;2.78;0.90;;;;;;;;;;4998036;28;20074;-84
2023/03/25 04:46:48;;;;;;;1.40;0.40;;;;;;;;;;4994287;28;20383;-83
2023/03/25 04:49:19;;;;;;;2.58;0.60;;;;;;;;;;5002369;28;20085;-83
2023/03/25 04:51:48;;;;;;;2.75;0.60;;;;;;;;;;4992975;28;20468;-84
2023/03/25 04:54:14;;;;;;;2.28;0.60;;;;;;;;;;4978411;28;20117;-83
2023/03/25 04:56:40;;;;;;;3.70;0.60;;;;;;;;;;4997152;28;20481;-85
2023/03/25 04:59:05;;;;;;;3.97;0.80;;;;;;;;;;4997067;28;20077;-84
2023/03/25 05:01:31;;;;;;;3.72;0.60;;;;;;;;;;4997068;28;20036;-84
2023/03/25 05:04:05;;;;;;;7.47;1.73;;;;;;;;;;4997980;28;20141;-83
2023/03/25 05:06:37;;;;;;;1.77;0.50;;;;;;;;;;4994708;28;20034;-84
2023/03/25 05:09:04;;;;;;;1.75;1.10;;;;;;;;;;4993679;28;20045;-84
2023/03/25 05:14:18;;;;;;;4.50;2.10;;;;;;;;;;4978015;28;20427;-83
2023/03/25 05:16:44;;;;;;;1.75;0.80;;;;;;;;;;4979689;28;20034;-83
2023/03/25 05:19:10;;;;;;;2.58;1.23;;;;;;;;;;4979495;28;20070;-83
2023/03/25 05:21:38;;;;;;;2.05;1.30;;;;;;;;;;4991006;28;20106;-82
2023/03/25 05:24:07;;;;;;;4.43;2.58;;;;;;;;;;4959616;29;20062;-82
2023/03/25 05:26:33;;;;;;;2.40;1.52;;;;;;;;;;4943141;28;20039;-82
2023/03/25 05:29:03;;;;;;;5.65;1.25;;;;;;;;;;4959027;28;20108;-82
2023/03/25 05:31:29;;;;;;;3.78;0.85;;;;;;;;;;4958525;29;20411;-83
2023/03/25 05:33:54;;;;;;;3.42;1.20;;;;;;;;;;4957775;28;20129;-83
2023/03/25 05:36:20;;;;;;;2.13;0.90;;;;;;;;;;4974255;28;20032;-82
2023/03/25 05:38:47;;;;;;;2.28;1.42;;;;;;;;;;4959927;28;20035;-81
2023/03/25 05:41:15;;;;;;;1.73;1.20;;;;;;;;;;4959669;29;20618;-83
2023/03/25 05:43:45;;;;;;;2.35;1.00;;;;;;;;;;4958321;28;20050;-82
2023/03/25 05:46:11;;;;;;;1.75;0.90;;;;;;;;;;4959187;28;20577;-83
2023/03/25 05:48:36;;;;;;;5.03;1.55;;;;;;;;;;4958953;28;20043;-82
2023/03/25 05:51:05;;;;;;;3.92;2.05;;;;;;;;;;4973951;28;20035;-82
2023/03/25 05:53:31;;;;;;;2.90;1.40;;;;;;;;;;4959018;28;20039;-81
2023/03/25 05:55:58;;;;;;;1.55;0.40;;;;;;;;;;4958825;28;20031;-82
2023/03/25 05:58:28;;;;;;;3.25;0.88;;;;;;;;;;4958474;28;20042;-82
2023/03/25 06:00:54;;;;;;;0.93;0.40;;;;;;;;;;4959034;28;20031;-82
2023/03/25 06:03:20;;;;;;;1.92;0.52;;;;;;;;;;4958639;28;20034;-83
2023/03/25 06:05:47;;;;;;;1.55;0.40;;;;;;;;;;4957953;28;20046;-82
2023/03/25 06:08:12;;;;;;;1.90;1.05;;;;;;;;;;4956982;29;20039;-82
2023/03/25 06:10:38;;;;;;;3.38;1.08;;;;;;;;;;4941533;28;20058;-81
2023/03/25 06:13:03;;;;;;;1.80;0.52;;;;;;;;;;4958819;28;20168;-82
2023/03/25 06:15:32;;;;;;;1.38;0.40;;;;;;;;;;4958131;28;20039;-82
2023/03/25 06:17:58;;;;;;;2.80;0.55;;;;;;;;;;4958795;28;20681;-82
2023/03/25 06:20:25;;;;;;;1.20;0.50;;;;;;;;;;4959818;28;20042;-83
2023/03/25 06:22:50;;;;;;;1.55;0.40;;;;;;;;;;4959132;28;20035;-83
2023/03/25 06:25:19;;;;;;;1.27;0.40;;;;;;;;;;4959247;28;20178;-82
2023/03/25 06:27:48;;;;;;;2.40;0.75;;;;;;;;;;4958667;28;20031;-83
2023/03/25 06:30:17;;;;;;;2.95;0.70;;;;;;;;;;4957635;29;20043;-80
2023/03/25 06:32:43;;;;;;;1.45;0.30;;;;;;;;;;4958987;28;20078;-81
2023/03/25 06:35:10;;;;;;;1.23;0.40;;;;;;;;;;4958983;28;20042;-83
2023/03/25 06:37:37;;;;;;;1.77;0.50;;;;;;;;;;4968166;28;20035;-83
2023/03/25 06:40:08;;;;;;;2.10;0.50;;;;;;;;;;4955264;29;20031;-82
2023/03/25 06:42:34;;;;;;;2.13;0.47;;;;;;;;;;4972052;28;20063;-82
2023/03/25 06:45:35;;;;;;;0.90;0.30;;;;;;;;;;4958079;28;20039;-82
2023/03/25 06:48:33;;;;;;;0.95;0.30;;;;;;;;;;4961653;28;20039;-82
2023/03/25 06:51:01;;;;;;;1.00;0.40;;;;;;;;;;4958003;28;20514;-82
2023/03/25 06:53:26;;;;;;;3.92;0.30;;;;;;;;;;4957771;28;20118;-83
2023/03/25 06:55:52;;;;;;;0.65;0.20;;;;;;;;;;4957352;28;20488;-82
2023/03/25 06:58:17;;;;;;;1.00;0.43;;;;;;;;;;4957804;28;20476;-83
2023/03/25 07:00:44;;;;;;;0.30;0.15;;;;;;;;;;4956930;28;20391;-81
2023/03/25 07:03:10;;;;;;;1.00;0.30;;;;;;;;;;4956353;28;20035;-81
2023/03/25 07:05:35;;;;;;;0.52;0.17;;;;;;;;;;4972482;28;20045;-81
2023/03/25 07:08:01;;;;;;;0.20;0.20;;;;;;;;;;4957779;28;20037;-81
2023/03/25 07:10:26;;;;;;;1.52;0.47;;;;;;;;;;4972365;28;20046;-82
2023/03/25 07:12:52;;;;;;;0.30;0.20;;;;;;;;;;4957748;28;20042;-83
2023/03/25 07:15:17;;;;;;;0.65;0.40;;;;;;;;;;4972034;28;20063;-82
2023/03/25 07:17:48;;;;;;;0.50;0.30;;;;;;;;;;4955114;28;20035;-81
2023/03/25 07:20:13;;;;;;;0.43;0.30;;;;;;;;;;4938270;29;20416;-81
2023/03/25 07:22:39;;;;;;;3.30;0.40;;;;;;;;;;4956654;28;20043;-80
2023/03/25 07:25:05;;;;;;;1.08;0.20;;;;;;;;;;4957087;28;20085;-82
2023/03/25 07:27:30;;;;;;;0.57;0.20;;;;;;;;;;4956837;28;20415;-81
2023/03/25 07:30:05;;;;;;;0.22;0.20;;;;;;;;;;4962996;28;20050;-82
2023/03/25 07:32:30;;;;;;;0.60;0.17;;;;;;;;;;4957238;28;20177;-80
2023/03/25 07:34:56;;;;;;;0.30;0.20;;;;;;;;;;4956809;28;20508;-82
2023/03/25 07:37:21;;;;;;;1.35;0.22;;;;;;;;;;4958627;28;20115;-81
2023/03/25 07:39:47;;;;;;;0.57;0.40;;;;;;;;;;4957761;28;20113;-82
2023/03/25 07:42:12;;;;;;;0.30;0.28;;;;;;;;;;4958723;28;20038;-83
2023/03/25 07:45:01;;;;;;;0.80;0.60;;;;;;;;;;4952283;28;20051;-82
2023/03/25 07:47:28;;;;;;;1.02;0.32;;;;;;;;;;4972681;28;20046;-82
2023/03/25 07:49:53;;;;;;;0.20;0.20;;;;;;;;;;4958331;28;20047;-81
2023/03/25 07:52:19;;;;;;;0.50;0.30;;;;;;;;;;4958480;28;20055;-83
2023/03/25 07:54:44;;;;;;;0.95;0.30;;;;;;;;;;4957623;28;20102;-80
2023/03/25 07:57:10;;;;;;;0.50;0.30;;;;;;;;;;4957264;28;20046;-82
2023/03/25 07:59:35;;;;;;;0.57;0.25;;;;;;;;;;4955816;28;20035;-81
2023/03/25 08:02:01;;;;;;;2.47;0.20;;;;;;;;;;4954851;28;20122;-81
2023/03/25 08:04:26;;;;;;;0.63;0.30;;;;;;;;;;4957429;28;20684;-82
2023/03/25 08:06:52;;;;;;;0.35;0.13;;;;;;;;;;4956978;28;20511;-82
2023/03/25 08:09:17;;;;;;;1.50;0.28;;;;;;;;;;4947591;29;20122;-82
2023/03/25 08:11:43;;;;;;;0.30;0.17;;;;;;;;;;4955514;28;20039;-85
2023/03/25 08:14:08;;;;;;;0.20;0.20;;;;;;;;;;4957440;28;20046;-82
2023/03/25 08:16:34;;;;;;;0.20;0.20;;;;;;;;;;4958911;28;20523;-83
2023/03/25 08:18:59;;;;;;;0.10;0.10;;;;;;;;;;4957732;28;20043;-81
2023/03/25 08:21:26;;;;;;;0.50;0.38;;;;;;;;;;4956722;28;20039;-82
2023/03/25 08:23:57;;;;;;;0.93;0.30;;;;;;;;;;4956421;28;20480;-82
2023/03/25 08:26:27;;;;;;;0.50;0.20;;;;;;;;;;4969469;28;20065;-82
2023/03/25 08:28:56;;;;;;;1.95;0.68;;;;;;;;;;4960550;28;20576;-81
2023/03/25 08:31:29;;;;;;;0.30;0.20;;;;;;;;;;4961922;28;20023;-82
2023/03/25 08:33:59;;;;;;;2.13;0.60;;;;;;;;;;4961940;28;20415;-80
2023/03/25 08:36:25;;;;;;;1.92;0.60;;;;;;;;;;4961217;29;20094;-82
2023/03/25 08:38:50;;;;;;;1.35;0.40;;;;;;;;;;4962261;28;20074;-83
2023/03/25 08:41:16;;;;;;;0.73;0.30;;;;;;;;;;4962322;28;20051;-82
2023/03/25 08:43:42;;;;;;;1.35;0.57;;;;;;;;;;4976640;28;20039;-82
2023/03/25 08:46:07;;;;;;;1.60;0.40;;;;;;;;;;4961331;28;20614;-82
2023/03/25 08:48:33;;;;;;;2.20;0.57;;;;;;;;;;4960209;29;20050;-83
2023/03/25 08:50:59;;;;;;;2.10;0.40;;;;;;;;;;4960014;28;20095;-80
2023/03/25 08:53:25;;;;;;;0.85;0.30;;;;;;;;;;4959888;28;20094;-83
2023/03/25 08:55:58;;;;;;;2.30;0.45;;;;;;;;;;4960548;28;20065;-82
2023/03/25 08:58:24;;;;;;;;;;;;;;;;;;4960802;28;20035;-79
2023/03/25 09:00:53;;;;;;;1.02;0.40;;;;;;;;;;4960894;29;20442;-83
2023/03/25 09:03:23;;;;;;;0.45;0.20;;;;;;;;;;4959886;28;20632;-82
2023/03/25 09:05:48;;;;;;;1.92;0.50;;;;;;;;;;4960671;28;20061;-82
2023/03/25 09:08:14;;;;;;;2.08;0.40;;;;;;;;;;4961198;28;20515;-82
2023/03/25 09:10:40;;;;;;;1.92;0.38;;;;;;;;;;4960848;28;20507;-81
2023/03/25 09:13:05;;;;;;;1.25;0.20;;;;;;;;;;4960644;28;20059;-83
2023/03/25 09:15:31;;;;;;;2.25;0.60;;;;;;;;;;4959409;29;20050;-82
2023/03/25 09:17:56;;;;;;;1.73;0.40;;;;;;;;;;4961705;28;20039;-82
2023/03/25 09:20:22;;;;;;;2.42;0.40;;;;;;;;;;4960465;28;20039;-82
2023/03/25 09:22:48;;;;;;;0.95;0.30;;;;;;;;;;4961667;28;20059;-83
2023/03/25 09:25:14;;;;;;;1.17;0.30;;;;;;;;;;4961249;29;20073;-83
2023/03/25 09:27:39;;;;;;;0.98;0.20;;;;;;;;;;4960329;28;20035;-80
2023/03/25 09:30:06;;;;;;;0.35;0.20;;;;;;;;;;4976515;28;20107;-81
2023/03/25 09:32:31;;;;;;;0.20;0.10;;;;;;;;;;4960357;28;20039;-81
2023/03/25 09:34:57;;;;;;;0.85;0.20;;;;;;;;;;4962734;28;20455;-83
2023/03/25 09:37:23;;;;;;;0.63;0.20;;;;;;;;;;4961187;28;20039;-83
2023/03/25 09:39:48;;;;;;;0.20;0.20;;;;;;;;;;4959582;28;20031;-83
2023/03/25 09:42:32;;;;;;;0.25;0.13;;;;;;;;;;4959394;28;20535;-81
2023/03/25 09:44:58;;;;;;;;;;;;;;;;;;4959828;28;20035;-78
2023/03/25 09:47:25;;;;;;;0.20;0.20;;;;;;;;;;4959574;29;19918;-81
2023/03/25 09:49:56;;;;;;;1.65;0.17;;;;;;;;;;4958970;29;20536;-82
2023/03/25 09:52:46;;;;;;;0.75;0.50;;;;;;;;;;4955032;28;20028;-81
2023/03/25 09:55:17;;;;;;;0.68;0.40;;;;;;;;;;4955504;28;20031;-81
2023/03/25 09:57:49;;;;;;;1.10;0.30;;;;;;;;;;4957869;28;20423;-83
2023/03/25 10:00:19;;;;;;;0.77;0.32;;;;;;;;;;4958580;28;20041;-82
2023/03/25 10:02:54;;;;;;;1.63;0.50;;;;;;;;;;4957941;28;20067;-81
2023/03/25 10:05:41;;;;;;;1.45;0.28;;;;;;;;;;4958431;28;20127;-82
2023/03/25 10:08:31;;;;;;;1.27;0.40;;;;;;;;;;4958497;28;20043;-83
2023/03/25 10:11:04;;;;;;;1.27;0.30;;;;;;;;;;4957659;29;20031;-81
2023/03/25 10:13:41;;;;;;;1.52;0.40;;;;;;;;;;4958157;28;20047;-82
2023/03/25 10:16:16;;;;;;;0.80;0.30;;;;;;;;;;4958502;28;20043;-81
2023/03/25 10:18:51;;;;;;;1.23;0.47;;;;;;;;;;4959067;28;20054;-82
2023/03/25 10:21:26;;;;;;;0.75;0.20;;;;;;;;;;4959318;28;20173;-82
2023/03/25 10:23:51;;;;;;;2.20;0.40;;;;;;;;;;4957735;28;20507;-82
2023/03/25 10:26:17;;;;;;;1.55;0.40;;;;;;;;;;4958973;29;20043;-81
2023/03/25 10:29:00;;;;;;;1.45;0.40;;;;;;;;;;4959109;28;20041;-82
2023/03/25 10:31:29;;;;;;;2.80;0.50;;;;;;;;;;4958229;29;20067;-82
2023/03/25 10:33:58;;;;;;;1.88;0.52;;;;;;;;;;4958022;28;20040;-82
2023/03/25 10:36:35;;;;;;;2.33;0.43;;;;;;;;;;4958706;29;20094;-81
2023/03/25 10:39:01;;;;;;;1.38;0.40;;;;;;;;;;4959586;28;20059;-82
2023/03/25 10:41:35;;;;;;;2.80;0.47;;;;;;;;;;4959274;29;20035;-83
2023/03/25 10:44:07;;;;;;;1.48;0.73;;;;;;;;;;4957593;28;20130;-82
2023/03/25 10:46:46;;;;;;;1.35;0.50;;;;;;;;;;4973529;28;20482;-82
2023/03/25 10:49:20;;;;;;;1.38;0.43;;;;;;;;;;4955375;28;20488;-82
2023/03/25 10:51:49;;;;;;;0.68;0.40;;;;;;;;;;4973206;28;20039;-81
2023/03/25 10:54:16;;;;;;;1.05;0.50;;;;;;;;;;4958766;28;20035;-82
2023/03/25 10:56:54;;;;;;;1.42;0.30;;;;;;;;;;4957748;29;20111;-81
2023/03/25 10:59:23;;;;;;;2.58;0.47;;;;;;;;;;4958470;29;20116;-82
2023/03/25 11:01:50;;;;;;;3.00;0.30;;;;;;;;;;4955627;28;20038;-82
2023/03/25 11:04:18;;;;;;;1.38;0.30;;;;;;;;;;4958466;29;20035;-83
2023/03/25 11:06:49;;;;;;;1.77;0.50;;;;;;;;;;4958104;28;20391;-82
2023/03/25 11:09:22;;;;;;;1.02;0.50;;;;;;;;;;4958130;28;20039;-82
2023/03/25 11:11:48;;;;;;;0.85;0.30;;;;;;;;;;4958826;28;20077;-82
2023/03/25 11:14:35;;;;;;;1.38;0.40;;;;;;;;;;4988735;23;20035;-86
2023/03/25 11:17:13;;;;;;;1.40;0.40;;;;;;;;;;4981498;28;20042;-85
2023/03/25 11:20:16;;;;;;;0.28;0.28;;;;;;;;;;4981576;28;20097;-85
2023/03/25 11:23:08;;;;;;;1.55;0.38;;;;;;;;;;4984792;28;20049;-84
2023/03/25 11:25:40;;;;;;;0.60;0.40;;;;;;;;;;4984481;28;20031;-84
2023/03/25 11:28:30;;;;;;;0.52;0.28;;;;;;;;;;4985634;28;20085;-82
2023/03/25 11:31:22;;;;;;;1.42;0.40;;;;;;;;;;4954377;28;20039;-83
2023/03/25 11:34:09;;;;;;;0.57;0.30;;;;;;;;;;4982655;28;20042;-82
2023/03/25 11:37:00;;;;;;;1.17;0.20;;;;;;;;;;4983172;28;20051;-81
2023/03/25 11:39:32;;;;;;;1.38;0.40;;;;;;;;;;4947659;28;20031;-84
2023/03/25 11:41:58;;;;;;;1.15;0.40;;;;;;;;;;4969907;28;20038;-84
2023/03/25 11:44:31;;;;;;;0.40;0.20;;;;;;;;;;4985181;28;20039;-84
2023/03/25 11:47:04;;;;;;;1.88;0.20;;;;;;;;;;4985428;28;20038;-86
2023/03/25 11:49:36;;;;;;;0.40;0.20;;;;;;;;;;4990191;28;20400;-87
2023/03/25 11:52:25;;;;;;;1.02;0.20;;;;;;;;;;4969570;28;20086;-84
2023/03/25 11:54:55;;;;;;;0.10;0.10;;;;;;;;;;4977594;28;20042;-84
2023/03/25 11:57:37;;;;;;;0.30;0.20;;;;;;;;;;4994925;28;20046;-86
2023/03/25 12:00:17;;;;;;;0.20;0.20;;;;;;;;;;4980485;28;20054;-86
2023/03/25 12:02:42;;;;;;;0.10;0.10;;;;;;;;;;4987563;28;20058;-83
2023/03/25 12:05:11;;;;;;;0.10;0.10;;;;;;;;;;4980546;28;20038;-83
2023/03/25 12:07:42;;;;;;;0.22;0.20;;;;;;;;;;4979752;28;20035;-83
2023/03/25 12:10:37;;;;;;;0.82;0.10;;;;;;;;;;4978716;28;20085;-84
2023/03/25 12:13:13;;;;;;;0.30;0.13;;;;;;;;;;4960039;28;20039;-84
2023/03/25 12:15:55;;;;;;;0.73;0.30;;;;;;;;;;4977964;28;20042;-84
2023/03/25 12:18:52;;;;;;;0.35;0.28;;;;;;;;;;4981363;28;20119;-85
2023/03/25 12:21:28;;;;;;;0.20;0.20;;;;;;;;;;4961726;28;20035;-85
2023/03/25 12:24:27;;;;;;;0.73;0.20;;;;;;;;;;4959606;28;20099;-87
2023/03/25 12:26:55;;;;;;;0.20;0.17;;;;;;;;;;4948929;28;20087;-85
2023/03/25 12:29:55;;;;;;;0.55;0.30;;;;;;;;;;4985974;28;20042;-84
2023/03/25 12:32:42;;;;;;;0.10;0.00;;;;;;;;;;4955867;28;20114;-84
2023/03/25 12:35:46;;;;;;;0.10;0.10;;;;;;;;;;4981212;28;20114;-84
2023/03/25 12:38:17;;;;;;;0.40;0.15;;;;;;;;;;4976231;28;20067;-84
2023/03/25 12:41:15;;;;;;;0.10;0.10;;;;;;;;;;4983180;28;20191;-84
2023/03/25 12:43:47;;;;;;;0.25;0.15;;;;;;;;;;4937848;28;20070;-84
2023/03/25 12:46:34;;;;;;;0.30;0.20;;;;;;;;;;4982786;28;20062;-86
2023/03/25 12:48:59;;;;;;;0.35;0.20;;;;;;;;;;4982788;28;20043;-85
2023/03/25 12:51:47;;;;;;;0.60;0.30;;;;;;;;;;4985682;28;20100;-85
2023/03/25 12:54:31;;;;;;;0.77;0.20;;;;;;;;;;4985645;28;20043;-84
2023/03/25 12:57:05;;;;;;;0.70;0.30;;;;;;;;;;4986120;28;20030;-82
2023/03/25 13:00:02;;;;;;;0.20;0.20;;;;;;;;;;4974727;28;20034;-82
2023/03/25 13:02:53;;;;;;;0.38;0.15;;;;;;;;;;4969574;28;20104;-82
2023/03/25 13:05:22;;;;;;;0.22;0.22;;;;;;;;;;4969237;28;20035;-83
2023/03/25 13:08:17;;;;;;;0.38;0.20;;;;;;;;;;4973346;28;20591;-82
2023/03/25 13:10:49;;;;;;;0.10;0.10;;;;;;;;;;4953760;28;20499;-86
2023/03/25 13:13:24;;;;;;;1.70;0.30;;;;;;;;;;4977035;28;20043;-84
2023/03/25 13:16:02;;;;;;;0.10;0.10;;;;;;;;;;4981916;28;20510;-83
2023/03/25 13:18:37;;;;;;;0.52;0.30;;;;;;;;;;4978682;28;20049;-82
2023/03/25 13:21:20;;;;;;;0.40;0.20;;;;;;;;;;4981552;28;20038;-83
2023/03/25 13:23:53;;;;;;;0.25;0.15;;;;;;;;;;4978813;28;20039;-82
2023/03/25 13:26:23;;;;;;;0.35;0.20;;;;;;;;;;4951267;28;20414;-83
2023/03/25 13:28:54;;;;;;;0.10;0.10;;;;;;;;;;4982239;28;20482;-84
2023/03/25 13:31:34;;;;;;;0.10;0.10;;;;;;;;;;4985599;28;20039;-82
2023/03/25 13:34:18;;;;;;;0.10;0.10;;;;;;;;;;4978148;28;20043;-85
2023/03/25 13:36:48;;;;;;;;;;;;;;;;;;4983731;28;20035;-82
2023/03/25 13:39:21;;;;;;;0.70;0.20;;;;;;;;;;4985504;28;19921;-84
2023/03/25 13:41:55;;;;;;;0.10;0.10;;;;;;;;;;4984813;28;20400;-85
2023/03/25 13:44:37;;;;;;;0.10;0.10;;;;;;;;;;4983322;28;20042;-85
2023/03/25 13:47:17;;;;;;;0.20;0.10;;;;;;;;;;4982068;28;20443;-84
2023/03/25 13:50:12;;;;;;;0.30;0.20;;;;;;;;;;4985864;28;20035;-84
2023/03/25 13:52:42;;;;;;;0.57;0.20;;;;;;;;;;4986309;28;20507;-85
2023/03/25 13:55:17;;;;;;;0.20;0.15;;;;;;;;;;4981136;28;20058;-85
2023/03/25 13:57:42;;;;;;;0.30;0.20;;;;;;;;;;4987825;28;20090;-85
2023/03/25 14:00:27;;;;;;;1.55;0.35;;;;;;;;;;4979789;28;20508;-84
2023/03/25 14:03:11;;;;;;;0.65;0.20;;;;;;;;;;4976394;28;20456;-85
2023/03/25 14:06:02;;;;;;;0.65;0.20;;;;;;;;;;4956776;28;20038;-84
2023/03/25 14:08:33;;;;;;;0.25;0.20;;;;;;;;;;4974268;28;20058;-84
2023/03/25 14:11:28;;;;;;;0.20;0.20;;;;;;;;;;4971766;28;20034;-83
2023/03/25 14:14:02;;;;;;;0.60;0.30;;;;;;;;;;4953477;28;20407;-83
2023/03/25 14:16:43;;;;;;;0.85;0.20;;;;;;;;;;4975580;28;20129;-84
2023/03/25 14:19:26;;;;;;;0.20;0.20;;;;;;;;;;4954577;28;20130;-85
2023/03/25 14:21:52;;;;;;;0.25;0.17;;;;;;;;;;4983735;28;20038;-85
2023/03/25 14:24:26;;;;;;;0.40;0.28;;;;;;;;;;4954418;28;20046;-84
2023/03/25 14:27:01;;;;;;;0.30;0.30;;;;;;;;;;4979329;28;20111;-84
2023/03/25 14:29:37;;;;;;;0.43;0.30;;;;;;;;;;4979717;28;20034;-86
2023/03/25 14:32:15;;;;;;;0.32;0.15;;;;;;;;;;4952658;28;20043;-85
2023/03/25 14:34:41;;;;;;;0.20;0.20;;;;;;;;;;4938580;28;20045;-86
2023/03/25 14:37:06;;;;;;;0.20;0.20;;;;;;;;;;4963783;28;20432;-82
2023/03/25 14:39:32;;;;;;;0.10;0.10;;;;;;;;;;4980779;28;20019;-85
2023/03/25 14:42:06;;;;;;;0.20;0.20;;;;;;;;;;4982493;28;20050;-87
2023/03/25 14:44:35;;;;;;;0.40;0.20;;;;;;;;;;4986343;28;20030;-88
2023/03/25 14:47:19;;;;;;;0.20;0.20;;;;;;;;;;4987854;28;20042;-84
2023/03/25 14:49:55;;;;;;;0.50;0.30;;;;;;;;;;4984873;28;20397;-87
2023/03/25 14:53:01;;;;;;;0.25;0.25;;;;;;;;;;4968269;28;20062;-83
2023/03/25 14:55:40;;;;;;;0.13;0.10;;;;;;;;;;4979916;28;20074;-85
2023/03/25 14:58:16;;;;;;;0.20;0.20;;;;;;;;;;4985529;28;20057;-85
2023/03/25 15:00:50;;;;;;;0.20;0.20;;;;;;;;;;4986598;28;20065;-87
2023/03/25 15:03:18;;;;;;;0.20;0.10;;;;;;;;;;4974824;28;20094;-83
2023/03/25 15:05:52;;;;;;;1.55;0.20;;;;;;;;;;4979638;28;20018;-84
2023/03/25 15:08:30;;;;;;;0.28;0.28;;;;;;;;;;4970911;28;20039;-84
2023/03/25 15:11:01;;;;;;;0.93;0.20;;;;;;;;;;4947624;29;20551;-83
2023/03/25 15:13:33;;;;;;;1.38;0.30;;;;;;;;;;4972024;28;20043;-82
2023/03/25 15:16:21;;;;;;;1.65;0.47;;;;;;;;;;4974640;28;20038;-85